sensor_id;sensor_type;location;lat;lon;timestamp;P1;durP1;ratioP1;P2;durP2;ratioP2
40675;SDS011;26359;48.750;9.314;2023-02-28T00:00:10;5.40;;;4.85;;
40675;SDS011;26359;48.750;9.314;2023-02-28T00:02:38;6.10;;;5.50;;
40675;SDS011;26359;48.750;9.314;2023-02-28T00:05:06;5.50;;;4.50;;
40675;SDS011;26359;48.750;9.314;2023-02-28T00:07:33;6.10;;;5.30;;
40675;SDS011;26359;48.750;9.314;2023-02-28T00:09:58;7.63;;;6.22;;
40675;SDS011;26359;48.750;9.314;2023-02-28T00:12:25;6.80;;;5.85;;
40675;SDS011;26359;48.750;9.314;2023-02-28T00:14:52;6.18;;;5.38;;
40675;SDS011;26359;48.750;9.314;2023-02-28T00:17:17;5.82;;;5.13;;
40675;SDS011;26359;48.750;9.314;2023-02-28T00:19:45;6.60;;;5.40;;
40675;SDS011;26359;48.750;9.314;2023-02-28T00:22:15;5.70;;;5.03;;
40675;SDS011;26359;48.750;9.314;2023-02-28T00:24:46;7.38;;;5.43;;
40675;SDS011;26359;48.750;9.314;2023-02-28T00:27:12;7.03;;;5.13;;
40675;SDS011;26359;48.750;9.314;2023-02-28T00:29:38;14.30;;;5.28;;
40675;SDS011;26359;48.750;9.314;2023-02-28T00:32:04;6.28;;;5.68;;
40675;SDS011;26359;48.750;9.314;2023-02-28T00:34:31;6.20;;;5.60;;
40675;SDS011;26359;48.750;9.314;2023-02-28T00:37:02;7.15;;;5.20;;
40675;SDS011;26359;48.750;9.314;2023-02-28T00:39:28;6.97;;;5.45;;
40675;SDS011;26359;48.750;9.314;2023-02-28T00:41:54;6.47;;;5.30;;
40675;SDS011;26359;48.750;9.314;2023-02-28T00:44:19;9.18;;;5.32;;
40675;SDS011;26359;48.750;9.314;2023-02-28T00:46:46;5.57;;;4.40;;
40675;SDS011;26359;48.750;9.314;2023-02-28T00:49:11;8.45;;;5.53;;
40675;SDS011;26359;48.750;9.314;2023-02-28T00:51:37;7.05;;;6.38;;
40675;SDS011;26359;48.750;9.314;2023-02-28T00:54:02;7.22;;;6.53;;
40675;SDS011;26359;48.750;9.314;2023-02-28T00:56:28;7.35;;;6.55;;
40675;SDS011;26359;48.750;9.314;2023-02-28T00:58:54;7.82;;;7.13;;
40675;SDS011;26359;48.750;9.314;2023-02-28T01:01:19;7.60;;;6.10;;
40675;SDS011;26359;48.750;9.314;2023-02-28T01:03:45;6.13;;;5.45;;
40675;SDS011;26359;48.750;9.314;2023-02-28T01:06:10;5.50;;;4.93;;
40675;SDS011;26359;48.750;9.314;2023-02-28T01:08:36;7.88;;;7.18;;
40675;SDS011;26359;48.750;9.314;2023-02-28T01:11:08;7.43;;;6.72;;
40675;SDS011;26359;48.750;9.314;2023-02-28T01:13:35;6.85;;;6.25;;
40675;SDS011;26359;48.750;9.314;2023-02-28T01:16:01;6.38;;;5.72;;
40675;SDS011;26359;48.750;9.314;2023-02-28T01:18:26;7.10;;;5.50;;
40675;SDS011;26359;48.750;9.314;2023-02-28T01:20:52;6.40;;;5.47;;
40675;SDS011;26359;48.750;9.314;2023-02-28T01:23:18;7.40;;;5.65;;
40675;SDS011;26359;48.750;9.314;2023-02-28T01:25:46;7.38;;;5.82;;
40675;SDS011;26359;48.750;9.314;2023-02-28T01:28:12;8.68;;;5.88;;
40675;SDS011;26359;48.750;9.314;2023-02-28T01:30:37;6.78;;;5.68;;
40675;SDS011;26359;48.750;9.314;2023-02-28T01:33:03;8.77;;;5.50;;
40675;SDS011;26359;48.750;9.314;2023-02-28T01:35:28;7.22;;;5.63;;
40675;SDS011;26359;48.750;9.314;2023-02-28T01:37:56;7.22;;;6.53;;
40675;SDS011;26359;48.750;9.314;2023-02-28T01:40:22;8.23;;;6.40;;
40675;SDS011;26359;48.750;9.314;2023-02-28T01:42:47;8.10;;;6.10;;
40675;SDS011;26359;48.750;9.314;2023-02-28T01:45:27;10.00;;;7.25;;
40675;SDS011;26359;48.750;9.314;2023-02-28T01:47:58;6.60;;;6.00;;
40675;SDS011;26359;48.750;9.314;2023-02-28T01:50:28;7.88;;;6.65;;
40675;SDS011;26359;48.750;9.314;2023-02-28T01:52:59;7.60;;;6.80;;
40675;SDS011;26359;48.750;9.314;2023-02-28T01:55:29;6.32;;;5.50;;
40675;SDS011;26359;48.750;9.314;2023-02-28T01:57:58;8.88;;;5.72;;
40675;SDS011;26359;48.750;9.314;2023-02-28T02:00:27;8.50;;;6.53;;
40675;SDS011;26359;48.750;9.314;2023-02-28T02:02:57;8.27;;;6.10;;
40675;SDS011;26359;48.750;9.314;2023-02-28T02:05:27;6.85;;;6.05;;
40675;SDS011;26359;48.750;9.314;2023-02-28T02:07:56;7.07;;;5.85;;
40675;SDS011;26359;48.750;9.314;2023-02-28T02:15:56;11.40;;;10.52;;
40675;SDS011;26359;48.750;9.314;2023-02-28T02:27:21;9.57;;;7.63;;
40675;SDS011;26359;48.750;9.314;2023-02-28T02:38:51;8.50;;;5.72;;
40675;SDS011;26359;48.750;9.314;2023-02-28T02:41:41;7.82;;;6.05;;
40675;SDS011;26359;48.750;9.314;2023-02-28T02:44:18;7.22;;;6.53;;
40675;SDS011;26359;48.750;9.314;2023-02-28T02:46:47;9.27;;;7.63;;
40675;SDS011;26359;48.750;9.314;2023-02-28T02:49:15;8.77;;;7.70;;
40675;SDS011;26359;48.750;9.314;2023-02-28T02:51:48;9.63;;;8.73;;
40675;SDS011;26359;48.750;9.314;2023-02-28T02:54:20;9.35;;;8.55;;
40675;SDS011;26359;48.750;9.314;2023-02-28T02:56:53;10.32;;;9.27;;
40675;SDS011;26359;48.750;9.314;2023-02-28T02:59:21;8.60;;;7.80;;
40675;SDS011;26359;48.750;9.314;2023-02-28T03:01:49;10.68;;;9.07;;
40675;SDS011;26359;48.750;9.314;2023-02-28T03:04:19;8.95;;;8.25;;
40675;SDS011;26359;48.750;9.314;2023-02-28T03:06:46;9.80;;;8.45;;
40675;SDS011;26359;48.750;9.314;2023-02-28T03:09:12;7.88;;;7.07;;
40675;SDS011;26359;48.750;9.314;2023-02-28T03:11:38;8.35;;;7.15;;
40675;SDS011;26359;48.750;9.314;2023-02-28T03:24:43;7.60;;;6.38;;
40675;SDS011;26359;48.750;9.314;2023-02-28T03:27:29;8.48;;;6.45;;
40675;SDS011;26359;48.750;9.314;2023-02-28T03:32:38;6.85;;;6.07;;
40675;SDS011;26359;48.750;9.314;2023-02-28T03:35:27;9.60;;;6.95;;
40675;SDS011;26359;48.750;9.314;2023-02-28T03:38:03;12.15;;;7.32;;
40675;SDS011;26359;48.750;9.314;2023-02-28T03:40:34;9.10;;;6.80;;
40675;SDS011;26359;48.750;9.314;2023-02-28T03:43:03;9.75;;;8.02;;
40675;SDS011;26359;48.750;9.314;2023-02-28T03:45:35;7.40;;;6.32;;
40675;SDS011;26359;48.750;9.314;2023-02-28T03:50:39;9.32;;;8.45;;
40675;SDS011;26359;48.750;9.314;2023-02-28T03:53:29;10.88;;;8.30;;
40675;SDS011;26359;48.750;9.314;2023-02-28T03:55:57;9.80;;;7.30;;
40675;SDS011;26359;48.750;9.314;2023-02-28T03:58:38;10.55;;;9.52;;
40675;SDS011;26359;48.750;9.314;2023-02-28T04:01:13;11.32;;;7.43;;
40675;SDS011;26359;48.750;9.314;2023-02-28T04:03:44;9.15;;;6.68;;
40675;SDS011;26359;48.750;9.314;2023-02-28T04:06:13;9.13;;;7.43;;
40675;SDS011;26359;48.750;9.314;2023-02-28T04:08:44;8.57;;;7.13;;
40675;SDS011;26359;48.750;9.314;2023-02-28T04:11:18;8.75;;;7.07;;
40675;SDS011;26359;48.750;9.314;2023-02-28T04:14:02;7.68;;;6.85;;
40675;SDS011;26359;48.750;9.314;2023-02-28T04:16:29;9.50;;;6.97;;
40675;SDS011;26359;48.750;9.314;2023-02-28T04:18:55;9.45;;;7.60;;
40675;SDS011;26359;48.750;9.314;2023-02-28T04:21:29;10.45;;;7.50;;
40675;SDS011;26359;48.750;9.314;2023-02-28T04:23:56;8.60;;;7.10;;
40675;SDS011;26359;48.750;9.314;2023-02-28T04:26:29;8.52;;;7.25;;
40675;SDS011;26359;48.750;9.314;2023-02-28T04:28:59;8.40;;;6.47;;
40675;SDS011;26359;48.750;9.314;2023-02-28T04:31:25;10.10;;;9.10;;
40675;SDS011;26359;48.750;9.314;2023-02-28T04:33:51;9.75;;;7.05;;
40675;SDS011;26359;48.750;9.314;2023-02-28T04:36:17;9.18;;;8.00;;
40675;SDS011;26359;48.750;9.314;2023-02-28T04:38:43;9.65;;;7.93;;
40675;SDS011;26359;48.750;9.314;2023-02-28T04:41:10;9.57;;;8.68;;
40675;SDS011;26359;48.750;9.314;2023-02-28T04:43:36;11.35;;;9.52;;
40675;SDS011;26359;48.750;9.314;2023-02-28T04:46:02;11.73;;;9.93;;
40675;SDS011;26359;48.750;9.314;2023-02-28T04:48:30;9.38;;;8.43;;
40675;SDS011;26359;48.750;9.314;2023-02-28T04:51:01;8.77;;;7.85;;
40675;SDS011;26359;48.750;9.314;2023-02-28T04:53:31;14.63;;;9.27;;
40675;SDS011;26359;48.750;9.314;2023-02-28T04:55:57;9.85;;;8.85;;
40675;SDS011;26359;48.750;9.314;2023-02-28T04:58:23;10.02;;;8.13;;
40675;SDS011;26359;48.750;9.314;2023-02-28T05:00:50;9.48;;;8.25;;
40675;SDS011;26359;48.750;9.314;2023-02-28T05:03:16;10.00;;;8.18;;
40675;SDS011;26359;48.750;9.314;2023-02-28T05:05:41;11.75;;;8.38;;
40675;SDS011;26359;48.750;9.314;2023-02-28T05:08:07;9.82;;;7.97;;
40675;SDS011;26359;48.750;9.314;2023-02-28T05:10:32;10.55;;;8.02;;
40675;SDS011;26359;48.750;9.314;2023-02-28T05:12:58;13.55;;;8.63;;
40675;SDS011;26359;48.750;9.314;2023-02-28T05:15:23;9.63;;;7.68;;
40675;SDS011;26359;48.750;9.314;2023-02-28T05:17:49;10.27;;;7.68;;
40675;SDS011;26359;48.750;9.314;2023-02-28T05:20:15;10.88;;;7.97;;
40675;SDS011;26359;48.750;9.314;2023-02-28T05:22:41;10.40;;;8.00;;
40675;SDS011;26359;48.750;9.314;2023-02-28T05:25:08;11.00;;;7.80;;
40675;SDS011;26359;48.750;9.314;2023-02-28T05:27:37;9.38;;;8.40;;
40675;SDS011;26359;48.750;9.314;2023-02-28T05:30:02;10.43;;;8.25;;
40675;SDS011;26359;48.750;9.314;2023-02-28T05:32:29;11.70;;;7.75;;
40675;SDS011;26359;48.750;9.314;2023-02-28T05:34:55;9.45;;;7.55;;
40675;SDS011;26359;48.750;9.314;2023-02-28T05:37:20;9.60;;;8.00;;
40675;SDS011;26359;48.750;9.314;2023-02-28T05:39:46;11.27;;;8.35;;
40675;SDS011;26359;48.750;9.314;2023-02-28T05:42:11;13.75;;;8.75;;
40675;SDS011;26359;48.750;9.314;2023-02-28T05:44:37;9.93;;;8.65;;
40675;SDS011;26359;48.750;9.314;2023-02-28T05:47:03;10.90;;;8.23;;
40675;SDS011;26359;48.750;9.314;2023-02-28T05:49:28;9.32;;;8.20;;
40675;SDS011;26359;48.750;9.314;2023-02-28T05:51:54;11.18;;;8.40;;
40675;SDS011;26359;48.750;9.314;2023-02-28T05:54:19;11.02;;;8.20;;
40675;SDS011;26359;48.750;9.314;2023-02-28T05:56:45;9.55;;;8.52;;
40675;SDS011;26359;48.750;9.314;2023-02-28T05:59:11;12.23;;;8.52;;
40675;SDS011;26359;48.750;9.314;2023-02-28T06:01:38;12.88;;;9.38;;
40675;SDS011;26359;48.750;9.314;2023-02-28T06:04:07;11.80;;;8.98;;
40675;SDS011;26359;48.750;9.314;2023-02-28T06:06:34;10.48;;;8.38;;
40675;SDS011;26359;48.750;9.314;2023-02-28T06:09:00;11.95;;;9.68;;
40675;SDS011;26359;48.750;9.314;2023-02-28T06:11:26;10.00;;;8.88;;
40675;SDS011;26359;48.750;9.314;2023-02-28T06:14:01;13.27;;;9.60;;
40675;SDS011;26359;48.750;9.314;2023-02-28T06:16:28;11.40;;;9.52;;
40675;SDS011;26359;48.750;9.314;2023-02-28T06:18:57;11.15;;;9.07;;
40675;SDS011;26359;48.750;9.314;2023-02-28T06:21:23;14.18;;;9.82;;
40675;SDS011;26359;48.750;9.314;2023-02-28T06:23:49;14.05;;;8.98;;
40675;SDS011;26359;48.750;9.314;2023-02-28T06:26:15;12.55;;;9.93;;
40675;SDS011;26359;48.750;9.314;2023-02-28T06:28:40;11.68;;;9.35;;
40675;SDS011;26359;48.750;9.314;2023-02-28T06:31:15;13.40;;;9.98;;
40675;SDS011;26359;48.750;9.314;2023-02-28T06:33:42;12.23;;;9.30;;
40675;SDS011;26359;48.750;9.314;2023-02-28T06:36:13;11.55;;;9.38;;
40675;SDS011;26359;48.750;9.314;2023-02-28T06:38:39;13.40;;;11.38;;
40675;SDS011;26359;48.750;9.314;2023-02-28T06:41:06;12.38;;;10.68;;
40675;SDS011;26359;48.750;9.314;2023-02-28T06:43:33;14.63;;;11.55;;
40675;SDS011;26359;48.750;9.314;2023-02-28T06:46:02;12.45;;;11.07;;
40675;SDS011;26359;48.750;9.314;2023-02-28T06:48:29;12.90;;;11.60;;
40675;SDS011;26359;48.750;9.314;2023-02-28T06:51:09;12.18;;;10.88;;
40675;SDS011;26359;48.750;9.314;2023-02-28T06:53:36;12.80;;;10.15;;
40675;SDS011;26359;48.750;9.314;2023-02-28T06:56:05;11.45;;;9.60;;
40675;SDS011;26359;48.750;9.314;2023-02-28T06:58:36;12.27;;;10.18;;
40675;SDS011;26359;48.750;9.314;2023-02-28T07:01:03;15.82;;;11.88;;
40675;SDS011;26359;48.750;9.314;2023-02-28T07:03:30;12.75;;;10.65;;
40675;SDS011;26359;48.750;9.314;2023-02-28T07:05:55;14.07;;;11.13;;
40675;SDS011;26359;48.750;9.314;2023-02-28T07:08:21;12.80;;;11.10;;
40675;SDS011;26359;48.750;9.314;2023-02-28T07:10:47;13.02;;;10.35;;
40675;SDS011;26359;48.750;9.314;2023-02-28T07:13:17;12.68;;;10.02;;
40675;SDS011;26359;48.750;9.314;2023-02-28T07:15:42;13.25;;;10.88;;
40675;SDS011;26359;48.750;9.314;2023-02-28T07:18:07;14.15;;;10.77;;
40675;SDS011;26359;48.750;9.314;2023-02-28T07:20:33;14.60;;;11.52;;
40675;SDS011;26359;48.750;9.314;2023-02-28T07:22:58;12.20;;;9.93;;
40675;SDS011;26359;48.750;9.314;2023-02-28T07:25:25;15.63;;;11.10;;
40675;SDS011;26359;48.750;9.314;2023-02-28T07:27:52;16.35;;;11.93;;
40675;SDS011;26359;48.750;9.314;2023-02-28T07:30:18;13.38;;;11.68;;
40675;SDS011;26359;48.750;9.314;2023-02-28T07:32:43;15.30;;;13.23;;
40675;SDS011;26359;48.750;9.314;2023-02-28T07:35:09;15.15;;;12.40;;
40675;SDS011;26359;48.750;9.314;2023-02-28T07:37:35;16.92;;;12.40;;
40675;SDS011;26359;48.750;9.314;2023-02-28T07:40:01;14.93;;;12.75;;
40675;SDS011;26359;48.750;9.314;2023-02-28T07:42:33;16.48;;;11.80;;
40675;SDS011;26359;48.750;9.314;2023-02-28T07:45:01;14.45;;;11.45;;
40675;SDS011;26359;48.750;9.314;2023-02-28T07:47:28;14.88;;;12.57;;
40675;SDS011;26359;48.750;9.314;2023-02-28T07:49:54;18.08;;;13.43;;
40675;SDS011;26359;48.750;9.314;2023-02-28T07:52:20;15.38;;;12.88;;
40675;SDS011;26359;48.750;9.314;2023-02-28T07:54:46;15.80;;;14.18;;
40675;SDS011;26359;48.750;9.314;2023-02-28T07:57:11;16.88;;;13.52;;
40675;SDS011;26359;48.750;9.314;2023-02-28T07:59:37;15.55;;;12.63;;
40675;SDS011;26359;48.750;9.314;2023-02-28T08:02:02;15.07;;;12.07;;
40675;SDS011;26359;48.750;9.314;2023-02-28T08:04:31;14.77;;;12.35;;
40675;SDS011;26359;48.750;9.314;2023-02-28T08:06:57;17.23;;;12.07;;
40675;SDS011;26359;48.750;9.314;2023-02-28T08:09:22;15.95;;;12.05;;
40675;SDS011;26359;48.750;9.314;2023-02-28T08:11:48;13.52;;;11.50;;
40675;SDS011;26359;48.750;9.314;2023-02-28T08:14:13;16.75;;;12.68;;
40675;SDS011;26359;48.750;9.314;2023-02-28T08:16:39;13.30;;;11.52;;
40675;SDS011;26359;48.750;9.314;2023-02-28T08:19:04;13.10;;;11.70;;
40675;SDS011;26359;48.750;9.314;2023-02-28T08:21:30;12.93;;;11.32;;
40675;SDS011;26359;48.750;9.314;2023-02-28T08:23:55;15.35;;;12.00;;
40675;SDS011;26359;48.750;9.314;2023-02-28T08:26:21;15.68;;;12.45;;
40675;SDS011;26359;48.750;9.314;2023-02-28T08:28:47;14.98;;;11.68;;
40675;SDS011;26359;48.750;9.314;2023-02-28T08:31:14;14.85;;;12.02;;
40675;SDS011;26359;48.750;9.314;2023-02-28T08:33:41;16.00;;;12.20;;
40675;SDS011;26359;48.750;9.314;2023-02-28T08:36:09;14.90;;;11.85;;
40675;SDS011;26359;48.750;9.314;2023-02-28T08:38:35;15.48;;;13.20;;
40675;SDS011;26359;48.750;9.314;2023-02-28T08:41:03;16.73;;;13.20;;
40675;SDS011;26359;48.750;9.314;2023-02-28T08:43:34;16.10;;;12.73;;
40675;SDS011;26359;48.750;9.314;2023-02-28T08:46:00;14.40;;;12.25;;
40675;SDS011;26359;48.750;9.314;2023-02-28T08:48:26;15.02;;;12.15;;
40675;SDS011;26359;48.750;9.314;2023-02-28T08:50:54;15.43;;;11.55;;
40675;SDS011;26359;48.750;9.314;2023-02-28T08:53:21;16.05;;;12.48;;
40675;SDS011;26359;48.750;9.314;2023-02-28T08:55:46;14.95;;;11.38;;
40675;SDS011;26359;48.750;9.314;2023-02-28T08:58:12;16.10;;;12.27;;
40675;SDS011;26359;48.750;9.314;2023-02-28T09:00:39;16.80;;;12.18;;
40675;SDS011;26359;48.750;9.314;2023-02-28T09:03:04;17.63;;;13.68;;
40675;SDS011;26359;48.750;9.314;2023-02-28T09:05:30;15.55;;;12.10;;
40675;SDS011;26359;48.750;9.314;2023-02-28T09:07:55;17.02;;;11.73;;
40675;SDS011;26359;48.750;9.314;2023-02-28T09:10:21;18.13;;;11.55;;
40675;SDS011;26359;48.750;9.314;2023-02-28T09:12:46;15.10;;;11.52;;
40675;SDS011;26359;48.750;9.314;2023-02-28T09:15:12;13.75;;;10.98;;
40675;SDS011;26359;48.750;9.314;2023-02-28T09:17:37;14.73;;;11.48;;
40675;SDS011;26359;48.750;9.314;2023-02-28T09:20:03;14.02;;;11.48;;
40675;SDS011;26359;48.750;9.314;2023-02-28T09:22:30;13.20;;;11.32;;
40675;SDS011;26359;48.750;9.314;2023-02-28T09:24:56;13.00;;;11.05;;
40675;SDS011;26359;48.750;9.314;2023-02-28T09:27:21;17.33;;;12.35;;
40675;SDS011;26359;48.750;9.314;2023-02-28T09:29:47;14.45;;;12.57;;
40675;SDS011;26359;48.750;9.314;2023-02-28T09:32:12;16.08;;;12.30;;
40675;SDS011;26359;48.750;9.314;2023-02-28T09:34:39;16.80;;;13.23;;
40675;SDS011;26359;48.750;9.314;2023-02-28T09:37:05;15.80;;;12.85;;
40675;SDS011;26359;48.750;9.314;2023-02-28T09:39:30;15.32;;;11.65;;
40675;SDS011;26359;48.750;9.314;2023-02-28T09:41:56;16.17;;;12.43;;
40675;SDS011;26359;48.750;9.314;2023-02-28T09:46:55;15.35;;;11.82;;
40675;SDS011;26359;48.750;9.314;2023-02-28T09:49:25;16.80;;;12.18;;
40675;SDS011;26359;48.750;9.314;2023-02-28T09:52:00;18.17;;;13.05;;
40675;SDS011;26359;48.750;9.314;2023-02-28T09:54:30;14.57;;;11.75;;
40675;SDS011;26359;48.750;9.314;2023-02-28T09:56:59;17.05;;;11.77;;
40675;SDS011;26359;48.750;9.314;2023-02-28T10:02:00;17.73;;;12.80;;
40675;SDS011;26359;48.750;9.314;2023-02-28T10:04:50;14.88;;;12.55;;
40675;SDS011;26359;48.750;9.314;2023-02-28T10:07:35;17.70;;;13.32;;
40675;SDS011;26359;48.750;9.314;2023-02-28T10:10:32;14.63;;;12.20;;
40675;SDS011;26359;48.750;9.314;2023-02-28T10:13:04;15.00;;;11.65;;
40675;SDS011;26359;48.750;9.314;2023-02-28T10:15:37;15.75;;;12.52;;
40675;SDS011;26359;48.750;9.314;2023-02-28T10:18:04;17.42;;;12.00;;
40675;SDS011;26359;48.750;9.314;2023-02-28T10:20:34;15.60;;;11.75;;
40675;SDS011;26359;48.750;9.314;2023-02-28T10:23:07;15.45;;;11.88;;
40675;SDS011;26359;48.750;9.314;2023-02-28T10:25:38;13.80;;;10.93;;
40675;SDS011;26359;48.750;9.314;2023-02-28T10:30:32;15.80;;;12.38;;
40675;SDS011;26359;48.750;9.314;2023-02-28T10:32:59;15.85;;;12.52;;
40675;SDS011;26359;48.750;9.314;2023-02-28T10:35:25;16.13;;;12.57;;
40675;SDS011;26359;48.750;9.314;2023-02-28T10:37:55;14.63;;;12.38;;
40675;SDS011;26359;48.750;9.314;2023-02-28T10:45:26;16.98;;;12.85;;
40675;SDS011;26359;48.750;9.314;2023-02-28T10:47:56;16.45;;;12.05;;
40675;SDS011;26359;48.750;9.314;2023-02-28T10:50:32;14.93;;;11.43;;
40675;SDS011;26359;48.750;9.314;2023-02-28T10:53:13;13.95;;;11.30;;
40675;SDS011;26359;48.750;9.314;2023-02-28T10:55:57;13.48;;;11.40;;
40675;SDS011;26359;48.750;9.314;2023-02-28T10:58:24;17.35;;;12.15;;
40675;SDS011;26359;48.750;9.314;2023-02-28T11:00:52;15.35;;;12.23;;
40675;SDS011;26359;48.750;9.314;2023-02-28T11:03:27;17.40;;;13.18;;
40675;SDS011;26359;48.750;9.314;2023-02-28T11:05:55;17.33;;;12.75;;
40675;SDS011;26359;48.750;9.314;2023-02-28T11:08:21;16.83;;;13.25;;
40675;SDS011;26359;48.750;9.314;2023-02-28T11:10:48;17.83;;;12.18;;
40675;SDS011;26359;48.750;9.314;2023-02-28T11:13:32;15.70;;;12.65;;
40675;SDS011;26359;48.750;9.314;2023-02-28T11:16:00;14.02;;;12.35;;
40675;SDS011;26359;48.750;9.314;2023-02-28T11:18:29;16.48;;;12.30;;
40675;SDS011;26359;48.750;9.314;2023-02-28T11:21:01;16.10;;;12.23;;
40675;SDS011;26359;48.750;9.314;2023-02-28T11:23:29;16.48;;;12.50;;
40675;SDS011;26359;48.750;9.314;2023-02-28T11:25:59;15.52;;;12.20;;
40675;SDS011;26359;48.750;9.314;2023-02-28T11:28:31;14.50;;;12.27;;
40675;SDS011;26359;48.750;9.314;2023-02-28T11:31:13;14.63;;;11.55;;
40675;SDS011;26359;48.750;9.314;2023-02-28T11:36:27;14.57;;;12.18;;
40675;SDS011;26359;48.750;9.314;2023-02-28T11:38:55;15.43;;;12.70;;
40675;SDS011;26359;48.750;9.314;2023-02-28T11:46:56;14.73;;;12.75;;
40675;SDS011;26359;48.750;9.314;2023-02-28T11:52:43;13.52;;;12.13;;
40675;SDS011;26359;48.750;9.314;2023-02-28T11:58:03;14.63;;;11.65;;
40675;SDS011;26359;48.750;9.314;2023-02-28T12:20:13;12.95;;;11.05;;
40675;SDS011;26359;48.750;9.314;2023-02-28T12:23:05;18.48;;;12.88;;
40675;SDS011;26359;48.750;9.314;2023-02-28T12:28:13;15.60;;;12.70;;
40675;SDS011;26359;48.750;9.314;2023-02-28T12:30:46;14.25;;;12.65;;
40675;SDS011;26359;48.750;9.314;2023-02-28T12:33:20;13.90;;;12.50;;
40675;SDS011;26359;48.750;9.314;2023-02-28T12:35:51;14.48;;;11.70;;
40675;SDS011;26359;48.750;9.314;2023-02-28T12:41:00;14.93;;;12.50;;
40675;SDS011;26359;48.750;9.314;2023-02-28T12:43:32;13.63;;;11.98;;
40675;SDS011;26359;48.750;9.314;2023-02-28T12:46:35;15.65;;;11.43;;
40675;SDS011;26359;48.750;9.314;2023-02-28T12:49:05;14.25;;;12.75;;
40675;SDS011;26359;48.750;9.314;2023-02-28T12:51:35;12.90;;;11.50;;
40675;SDS011;26359;48.750;9.314;2023-02-28T12:59:34;13.68;;;11.63;;
40675;SDS011;26359;48.750;9.314;2023-02-28T13:05:21;12.48;;;10.77;;
40675;SDS011;26359;48.750;9.314;2023-02-28T13:10:45;14.13;;;11.30;;
40675;SDS011;26359;48.750;9.314;2023-02-28T13:13:18;13.93;;;11.85;;
40675;SDS011;26359;48.750;9.314;2023-02-28T13:16:00;12.77;;;11.25;;
40675;SDS011;26359;48.750;9.314;2023-02-28T13:18:30;12.15;;;10.85;;
40675;SDS011;26359;48.750;9.314;2023-02-28T13:20:58;13.38;;;11.32;;
40675;SDS011;26359;48.750;9.314;2023-02-28T13:23:36;14.57;;;11.55;;
40675;SDS011;26359;48.750;9.314;2023-02-28T13:26:21;13.40;;;11.00;;
40675;SDS011;26359;48.750;9.314;2023-02-28T13:29:00;13.85;;;11.95;;
40675;SDS011;26359;48.750;9.314;2023-02-28T13:31:29;12.35;;;11.15;;
40675;SDS011;26359;48.750;9.314;2023-02-28T13:36:31;14.18;;;12.73;;
40675;SDS011;26359;48.750;9.314;2023-02-28T13:38:57;14.85;;;13.35;;
40675;SDS011;26359;48.750;9.314;2023-02-28T13:59:59;13.32;;;11.93;;
40675;SDS011;26359;48.750;9.314;2023-02-28T14:02:37;14.88;;;12.65;;
40675;SDS011;26359;48.750;9.314;2023-02-28T14:05:14;13.23;;;11.88;;
40675;SDS011;26359;48.750;9.314;2023-02-28T14:07:46;15.30;;;12.63;;
40675;SDS011;26359;48.750;9.314;2023-02-28T14:10:21;12.85;;;11.52;;
40675;SDS011;26359;48.750;9.314;2023-02-28T14:18:24;13.18;;;11.73;;
40675;SDS011;26359;48.750;9.314;2023-02-28T14:20:58;15.38;;;12.00;;
40675;SDS011;26359;48.750;9.314;2023-02-28T14:23:34;13.27;;;11.48;;
40675;SDS011;26359;48.750;9.314;2023-02-28T14:26:16;12.63;;;11.32;;
40675;SDS011;26359;48.750;9.314;2023-02-28T14:29:04;13.98;;;12.30;;
40675;SDS011;26359;48.750;9.314;2023-02-28T14:32:02;13.80;;;11.15;;
40675;SDS011;26359;48.750;9.314;2023-02-28T14:34:41;13.30;;;11.75;;
40675;SDS011;26359;48.750;9.314;2023-02-28T14:37:29;14.55;;;12.13;;
40675;SDS011;26359;48.750;9.314;2023-02-28T14:39:57;14.27;;;12.27;;
40675;SDS011;26359;48.750;9.314;2023-02-28T14:44:58;14.32;;;11.85;;
40675;SDS011;26359;48.750;9.314;2023-02-28T14:47:26;13.80;;;12.15;;
40675;SDS011;26359;48.750;9.314;2023-02-28T14:49:55;13.88;;;12.43;;
40675;SDS011;26359;48.750;9.314;2023-02-28T14:52:22;12.48;;;11.05;;
40675;SDS011;26359;48.750;9.314;2023-02-28T14:54:59;13.15;;;11.75;;
40675;SDS011;26359;48.750;9.314;2023-02-28T14:57:33;13.48;;;11.70;;
40675;SDS011;26359;48.750;9.314;2023-02-28T15:00:02;14.20;;;12.30;;
40675;SDS011;26359;48.750;9.314;2023-02-28T15:02:39;12.70;;;10.85;;
40675;SDS011;26359;48.750;9.314;2023-02-28T15:07:43;14.98;;;12.93;;
40675;SDS011;26359;48.750;9.314;2023-02-28T15:12:46;15.32;;;12.65;;
40675;SDS011;26359;48.750;9.314;2023-02-28T15:15:21;15.05;;;12.32;;
40675;SDS011;26359;48.750;9.314;2023-02-28T15:17:51;14.25;;;12.75;;
40675;SDS011;26359;48.750;9.314;2023-02-28T15:20:21;12.68;;;11.38;;
40675;SDS011;26359;48.750;9.314;2023-02-28T15:22:48;15.02;;;11.57;;
40675;SDS011;26359;48.750;9.314;2023-02-28T15:25:18;12.50;;;11.30;;
40675;SDS011;26359;48.750;9.314;2023-02-28T15:27:46;14.95;;;11.93;;
40675;SDS011;26359;48.750;9.314;2023-02-28T15:30:33;13.35;;;11.52;;
40675;SDS011;26359;48.750;9.314;2023-02-28T15:33:03;14.95;;;11.00;;
40675;SDS011;26359;48.750;9.314;2023-02-28T15:35:36;13.15;;;11.63;;
40675;SDS011;26359;48.750;9.314;2023-02-28T15:38:04;13.98;;;11.52;;
40675;SDS011;26359;48.750;9.314;2023-02-28T15:40:46;14.05;;;12.52;;
40675;SDS011;26359;48.750;9.314;2023-02-28T15:43:31;13.30;;;11.40;;
40675;SDS011;26359;48.750;9.314;2023-02-28T15:45:59;13.95;;;11.57;;
40675;SDS011;26359;48.750;9.314;2023-02-28T15:48:29;14.82;;;13.38;;
40675;SDS011;26359;48.750;9.314;2023-02-28T15:51:01;17.98;;;14.52;;
40675;SDS011;26359;48.750;9.314;2023-02-28T15:53:41;14.38;;;12.98;;
40675;SDS011;26359;48.750;9.314;2023-02-28T15:58:49;14.25;;;11.43;;
40675;SDS011;26359;48.750;9.314;2023-02-28T16:01:18;14.10;;;12.60;;
40675;SDS011;26359;48.750;9.314;2023-02-28T16:03:45;15.32;;;12.73;;
40675;SDS011;26359;48.750;9.314;2023-02-28T16:08:41;14.85;;;13.25;;
40675;SDS011;26359;48.750;9.314;2023-02-28T16:11:10;14.80;;;12.75;;
40675;SDS011;26359;48.750;9.314;2023-02-28T16:13:36;14.95;;;12.38;;
40675;SDS011;26359;48.750;9.314;2023-02-28T16:16:02;19.25;;;12.25;;
40675;SDS011;26359;48.750;9.314;2023-02-28T16:18:28;16.30;;;13.70;;
40675;SDS011;26359;48.750;9.314;2023-02-28T16:20:53;17.20;;;13.50;;
40675;SDS011;26359;48.750;9.314;2023-02-28T16:23:19;14.10;;;12.35;;
40675;SDS011;26359;48.750;9.314;2023-02-28T16:25:44;13.93;;;12.52;;
40675;SDS011;26359;48.750;9.314;2023-02-28T16:28:20;16.30;;;14.52;;
40675;SDS011;26359;48.750;9.314;2023-02-28T16:30:51;14.52;;;12.68;;
40675;SDS011;26359;48.750;9.314;2023-02-28T16:33:17;17.08;;;12.98;;
40675;SDS011;26359;48.750;9.314;2023-02-28T16:35:42;18.45;;;14.07;;
40675;SDS011;26359;48.750;9.314;2023-02-28T16:38:08;15.57;;;13.55;;
40675;SDS011;26359;48.750;9.314;2023-02-28T16:40:35;15.43;;;11.60;;
40675;SDS011;26359;48.750;9.314;2023-02-28T16:43:01;15.73;;;14.05;;
40675;SDS011;26359;48.750;9.314;2023-02-28T16:45:31;15.52;;;13.23;;
40675;SDS011;26359;48.750;9.314;2023-02-28T16:47:56;15.50;;;13.90;;
40675;SDS011;26359;48.750;9.314;2023-02-28T16:50:27;16.65;;;12.50;;
40675;SDS011;26359;48.750;9.314;2023-02-28T16:52:54;14.95;;;12.52;;
40675;SDS011;26359;48.750;9.314;2023-02-28T16:55:20;16.95;;;12.48;;
40675;SDS011;26359;48.750;9.314;2023-02-28T16:57:48;17.52;;;12.88;;
40675;SDS011;26359;48.750;9.314;2023-02-28T17:00:17;15.48;;;12.63;;
40675;SDS011;26359;48.750;9.314;2023-02-28T17:02:43;16.30;;;13.00;;
40675;SDS011;26359;48.750;9.314;2023-02-28T17:05:10;18.33;;;13.32;;